sensor_id;sensor_type;location;lat;lon;timestamp;pressure;altitude;pressure_sealevel;temperature;humidity
30875;BME280;17581;43.222;27.924;2023-07-31T00:02:19;100081.31;;;22.23;98.72
30875;BME280;17581;43.222;27.924;2023-07-31T00:04:44;100097.13;;;22.28;98.80
30875;BME280;17581;43.222;27.924;2023-07-31T00:07:11;100028.47;;;21.90;98.90
30875;BME280;17581;43.222;27.924;2023-07-31T00:09:36;100086.59;;;22.05;99.25
30875;BME280;17581;43.222;27.924;2023-07-31T00:12:02;100089.97;;;22.14;99.89
30875;BME280;17581;43.222;27.924;2023-07-31T00:14:27;100086.41;;;22.13;99.79
30875;BME280;17581;43.222;27.924;2023-07-31T00:16:52;100062.38;;;21.96;100.00
30875;BME280;17581;43.222;27.924;2023-07-31T00:19:18;100078.19;;;22.07;100.00
30875;BME280;17581;43.222;27.924;2023-07-31T00:21:44;100097.97;;;22.09;100.00
30875;BME280;17581;43.222;27.924;2023-07-31T00:24:09;100088.72;;;22.03;100.00
30875;BME280;17581;43.222;27.924;2023-07-31T00:26:35;100097.13;;;22.15;99.65
30875;BME280;17581;43.222;27.924;2023-07-31T00:29:00;100076.91;;;22.03;98.65
30875;BME280;17581;43.222;27.924;2023-07-31T00:31:26;100085.56;;;22.00;98.77
30875;BME280;17581;43.222;27.924;2023-07-31T00:33:51;100073.09;;;21.84;99.42
30875;BME280;17581;43.222;27.924;2023-07-31T00:36:17;100093.78;;;22.00;100.00
30875;BME280;17581;43.222;27.924;2023-07-31T00:38:43;100067.22;;;21.81;100.00
30875;BME280;17581;43.222;27.924;2023-07-31T00:41:09;100081.16;;;21.92;100.00
30875;BME280;17581;43.222;27.924;2023-07-31T00:43:34;100098.63;;;21.98;100.00
30875;BME280;17581;43.222;27.924;2023-07-31T00:46:00;100094.19;;;22.03;100.00
30875;BME280;17581;43.222;27.924;2023-07-31T00:48:25;100096.72;;;22.05;100.00
30875;BME280;17581;43.222;27.924;2023-07-31T00:50:51;100081.56;;;21.96;99.97
30875;BME280;17581;43.222;27.924;2023-07-31T00:53:17;100073.75;;;21.86;100.00
30875;BME280;17581;43.222;27.924;2023-07-31T00:55:43;100071.88;;;21.80;100.00
30875;BME280;17581;43.222;27.924;2023-07-31T00:58:09;100079.00;;;21.75;100.00
30875;BME280;17581;43.222;27.924;2023-07-31T01:00:35;100101.78;;;21.88;100.00
30875;BME280;17581;43.222;27.924;2023-07-31T01:03:00;100094.59;;;21.81;100.00
30875;BME280;17581;43.222;27.924;2023-07-31T01:08:33;100088.53;;;21.92;100.00
30875;BME280;17581;43.222;27.924;2023-07-31T01:13:38;100079.84;;;21.82;100.00
30875;BME280;17581;43.222;27.924;2023-07-31T01:16:03;100079.00;;;21.81;100.00
30875;BME280;17581;43.222;27.924;2023-07-31T01:18:29;100090.84;;;21.95;100.00
30875;BME280;17581;43.222;27.924;2023-07-31T01:21:03;100095.91;;;21.91;100.00
30875;BME280;17581;43.222;27.924;2023-07-31T01:24:05;100104.06;;;21.85;100.00
30875;BME280;17581;43.222;27.924;2023-07-31T01:26:36;100068.50;;;21.58;100.00
30875;BME280;17581;43.222;27.924;2023-07-31T01:31:54;100103.22;;;21.78;100.00
30875;BME280;17581;43.222;27.924;2023-07-31T01:34:21;100099.00;;;21.68;100.00
30875;BME280;17581;43.222;27.924;2023-07-31T01:36:47;100104.06;;;21.71;100.00
30875;BME280;17581;43.222;27.924;2023-07-31T01:39:13;100114.81;;;21.80;100.00
30875;BME280;17581;43.222;27.924;2023-07-31T01:41:40;100095.84;;;21.58;100.00
30875;BME280;17581;43.222;27.924;2023-07-31T01:44:06;100129.75;;;21.84;100.00
30875;BME280;17581;43.222;27.924;2023-07-31T01:46:31;100105.34;;;21.76;100.00
30875;BME280;17581;43.222;27.924;2023-07-31T01:48:57;100112.94;;;21.80;100.00
30875;BME280;17581;43.222;27.924;2023-07-31T01:51:22;100063.63;;;21.54;100.00
30875;BME280;17581;43.222;27.924;2023-07-31T01:53:48;100099.00;;;21.82;100.00
30875;BME280;17581;43.222;27.924;2023-07-31T01:56:13;100102.19;;;21.79;100.00
30875;BME280;17581;43.222;27.924;2023-07-31T01:58:38;100104.91;;;21.79;100.00
30875;BME280;17581;43.222;27.924;2023-07-31T02:01:04;100089.09;;;21.81;100.00
30875;BME280;17581;43.222;27.924;2023-07-31T02:03:29;100112.91;;;21.87;100.00
30875;BME280;17581;43.222;27.924;2023-07-31T02:05:55;100106.38;;;21.81;100.00
30875;BME280;17581;43.222;27.924;2023-07-31T02:08:22;100087.88;;;21.77;100.00
30875;BME280;17581;43.222;27.924;2023-07-31T02:10:47;100127.06;;;21.97;100.00
30875;BME280;17581;43.222;27.924;2023-07-31T02:13:12;100105.38;;;21.89;100.00
30875;BME280;17581;43.222;27.924;2023-07-31T02:15:38;100123.69;;;21.88;100.00
30875;BME280;17581;43.222;27.924;2023-07-31T02:18:03;100119.47;;;21.86;100.00
30875;BME280;17581;43.222;27.924;2023-07-31T02:20:29;100121.13;;;21.87;100.00
30875;BME280;17581;43.222;27.924;2023-07-31T02:22:54;100102.59;;;21.76;100.00
30875;BME280;17581;43.222;27.924;2023-07-31T02:25:20;100126.81;;;21.85;100.00
30875;BME280;17581;43.222;27.924;2023-07-31T02:27:45;100127.00;;;21.84;100.00
30875;BME280;17581;43.222;27.924;2023-07-31T02:30:11;100116.47;;;21.81;100.00
30875;BME280;17581;43.222;27.924;2023-07-31T02:32:36;100129.56;;;21.79;100.00
30875;BME280;17581;43.222;27.924;2023-07-31T02:35:02;100105.34;;;21.76;100.00
30875;BME280;17581;43.222;27.924;2023-07-31T02:37:27;100116.47;;;21.81;100.00
30875;BME280;17581;43.222;27.924;2023-07-31T02:39:54;100118.16;;;21.75;100.00
30875;BME280;17581;43.222;27.924;2023-07-31T02:42:19;100114.59;;;21.61;100.00
30875;BME280;17581;43.222;27.924;2023-07-31T02:44:45;100103.00;;;21.46;100.00
30875;BME280;17581;43.222;27.924;2023-07-31T02:47:10;100094.34;;;21.43;100.00
30875;BME280;17581;43.222;27.924;2023-07-31T02:49:36;100122.38;;;21.64;100.00
30875;BME280;17581;43.222;27.924;2023-07-31T02:52:01;100105.56;;;21.67;100.00
30875;BME280;17581;43.222;27.924;2023-07-31T02:54:26;100113.75;;;21.67;100.00
30875;BME280;17581;43.222;27.924;2023-07-31T02:56:52;100115.84;;;21.65;100.00
30875;BME280;17581;43.222;27.924;2023-07-31T02:59:17;100128.28;;;21.75;100.00
30875;BME280;17581;43.222;27.924;2023-07-31T03:01:44;100119.84;;;21.69;100.00
30875;BME280;17581;43.222;27.924;2023-07-31T03:04:09;100123.22;;;21.71;100.00
30875;BME280;17581;43.222;27.924;2023-07-31T03:06:35;100135.22;;;21.84;100.00
30875;BME280;17581;43.222;27.924;2023-07-31T03:09:00;100130.03;;;21.89;100.00
30875;BME280;17581;43.222;27.924;2023-07-31T03:11:25;100111.66;;;21.83;100.00
30875;BME280;17581;43.222;27.924;2023-07-31T03:13:51;100134.25;;;22.04;99.29
30875;BME280;17581;43.222;27.924;2023-07-31T03:16:17;100078.59;;;21.71;98.60
30875;BME280;17581;43.222;27.924;2023-07-31T03:18:42;100110.59;;;21.84;97.69
30875;BME280;17581;43.222;27.924;2023-07-31T03:21:08;100113.97;;;21.86;97.27
30875;BME280;17581;43.222;27.924;2023-07-31T03:23:33;100105.53;;;21.81;97.15
30875;BME280;17581;43.222;27.924;2023-07-31T03:26:00;100118.22;;;21.95;97.24
30875;BME280;17581;43.222;27.924;2023-07-31T03:28:26;100090.38;;;21.78;97.69
30875;BME280;17581;43.222;27.924;2023-07-31T03:30:52;100117.56;;;21.93;97.49
30875;BME280;17581;43.222;27.924;2023-07-31T03:33:17;100117.38;;;22.01;96.85
30875;BME280;17581;43.222;27.924;2023-07-31T03:35:43;100123.69;;;22.08;97.12
30875;BME280;17581;43.222;27.924;2023-07-31T03:38:08;100096.94;;;21.97;97.23
30875;BME280;17581;43.222;27.924;2023-07-31T03:40:34;100122.22;;;22.12;97.40
30875;BME280;17581;43.222;27.924;2023-07-31T03:42:59;100109.78;;;22.03;97.47
30875;BME280;17581;43.222;27.924;2023-07-31T03:45:25;100136.34;;;22.22;97.73
30875;BME280;17581;43.222;27.924;2023-07-31T03:47:50;100130.44;;;22.25;97.15
30875;BME280;17581;43.222;27.924;2023-07-31T03:50:16;100124.94;;;22.25;96.98
30875;BME280;17581;43.222;27.924;2023-07-31T03:52:41;100118.44;;;22.26;96.89
30875;BME280;17581;43.222;27.924;2023-07-31T03:55:07;100127.88;;;22.30;96.92
30875;BME280;17581;43.222;27.924;2023-07-31T03:57:32;100115.88;;;22.24;97.18
30875;BME280;17581;43.222;27.924;2023-07-31T03:59:58;100132.50;;;22.36;96.75
30875;BME280;17581;43.222;27.924;2023-07-31T04:02:24;100136.09;;;22.43;96.41
30875;BME280;17581;43.222;27.924;2023-07-31T04:04:49;100129.75;;;22.49;95.50
30875;BME280;17581;43.222;27.924;2023-07-31T04:07:14;100133.75;;;22.53;94.95
30875;BME280;17581;43.222;27.924;2023-07-31T04:09:40;100135.22;;;22.62;94.44
30875;BME280;17581;43.222;27.924;2023-07-31T04:12:06;100113.50;;;22.54;94.49
30875;BME280;17581;43.222;27.924;2023-07-31T04:14:31;100105.94;;;22.50;94.19
30875;BME280;17581;43.222;27.924;2023-07-31T04:16:57;100110.97;;;22.59;93.93
30875;BME280;17581;43.222;27.924;2023-07-31T04:19:24;100118.72;;;22.75;93.71
30875;BME280;17581;43.222;27.924;2023-07-31T04:21:49;100092.00;;;22.58;93.45
30875;BME280;17581;43.222;27.924;2023-07-31T04:24:14;100131.59;;;22.82;93.32
30875;BME280;17581;43.222;27.924;2023-07-31T04:26:40;100125.66;;;22.85;93.19
30875;BME280;17581;43.222;27.924;2023-07-31T04:29:05;100115.78;;;22.84;93.02
30875;BME280;17581;43.222;27.924;2023-07-31T04:31:31;100118.25;;;22.92;91.75
30875;BME280;17581;43.222;27.924;2023-07-31T04:33:56;100094.50;;;22.72;92.32
30875;BME280;17581;43.222;27.924;2023-07-31T04:36:21;100106.72;;;22.76;93.20
30875;BME280;17581;43.222;27.924;2023-07-31T04:38:47;100116.66;;;22.77;93.69
30875;BME280;17581;43.222;27.924;2023-07-31T04:41:12;100083.16;;;22.49;93.13
30875;BME280;17581;43.222;27.924;2023-07-31T04:43:38;100144.22;;;22.89;93.10
30875;BME280;17581;43.222;27.924;2023-07-31T04:46:05;100148.44;;;22.92;92.80
30875;BME280;17581;43.222;27.924;2023-07-31T04:48:30;100140.63;;;22.89;92.95
30875;BME280;17581;43.222;27.924;2023-07-31T04:50:56;100140.03;;;22.87;92.67
30875;BME280;17581;43.222;27.924;2023-07-31T04:53:21;100116.44;;;22.72;92.29
30875;BME280;17581;43.222;27.924;2023-07-31T04:55:47;100141.69;;;22.88;92.82
30875;BME280;17581;43.222;27.924;2023-07-31T04:58:12;100152.22;;;22.97;92.43
30875;BME280;17581;43.222;27.924;2023-07-31T05:00:37;100142.34;;;22.90;92.17
30875;BME280;17581;43.222;27.924;2023-07-31T05:03:03;100149.88;;;23.01;92.48
30875;BME280;17581;43.222;27.924;2023-07-31T05:05:28;100160.59;;;23.09;92.22
30875;BME280;17581;43.222;27.924;2023-07-31T05:07:54;100154.03;;;23.16;91.68
30875;BME280;17581;43.222;27.924;2023-07-31T05:10:19;100146.63;;;23.23;90.18
30875;BME280;17581;43.222;27.924;2023-07-31T05:12:45;100134.56;;;23.24;89.90
30875;BME280;17581;43.222;27.924;2023-07-31T05:15:10;100138.56;;;23.28;90.08
30875;BME280;17581;43.222;27.924;2023-07-31T05:17:36;100119.59;;;23.27;88.90
30875;BME280;17581;43.222;27.924;2023-07-31T05:20:01;100163.91;;;23.68;86.73
30875;BME280;17581;43.222;27.924;2023-07-31T05:22:26;100155.84;;;23.73;85.94
30875;BME280;17581;43.222;27.924;2023-07-31T05:24:52;100171.19;;;23.88;84.69
30875;BME280;17581;43.222;27.924;2023-07-31T05:27:19;100149.66;;;23.84;84.04
30875;BME280;17581;43.222;27.924;2023-07-31T05:29:44;100166.44;;;24.01;83.56
30875;BME280;17581;43.222;27.924;2023-07-31T05:32:10;100153.88;;;23.87;82.91
30875;BME280;17581;43.222;27.924;2023-07-31T05:34:36;100166.81;;;24.05;82.85
30875;BME280;17581;43.222;27.924;2023-07-31T05:37:01;100168.56;;;23.99;81.85
30875;BME280;17581;43.222;27.924;2023-07-31T05:39:26;100168.97;;;24.03;81.54
30875;BME280;17581;43.222;27.924;2023-07-31T05:41:52;100170.97;;;24.20;82.40
30875;BME280;17581;43.222;27.924;2023-07-31T05:44:17;100159.56;;;24.17;81.44
30875;BME280;17581;43.222;27.924;2023-07-31T05:46:43;100178.84;;;24.35;82.60
30875;BME280;17581;43.222;27.924;2023-07-31T05:49:08;100148.53;;;24.23;81.36
30875;BME280;17581;43.222;27.924;2023-07-31T05:51:34;100177.97;;;24.41;80.95
30875;BME280;17581;43.222;27.924;2023-07-31T05:53:59;100155.22;;;24.34;79.91
30875;BME280;17581;43.222;27.924;2023-07-31T05:56:24;100177.84;;;24.54;80.30
30875;BME280;17581;43.222;27.924;2023-07-31T05:58:52;100180.75;;;24.59;79.01
30875;BME280;17581;43.222;27.924;2023-07-31T06:01:17;100176.63;;;24.68;78.49
30875;BME280;17581;43.222;27.924;2023-07-31T06:03:43;100175.13;;;24.72;78.57
30875;BME280;17581;43.222;27.924;2023-07-31T06:06:08;100181.84;;;24.76;78.43
30875;BME280;17581;43.222;27.924;2023-07-31T06:08:34;100181.41;;;24.79;78.30
30875;BME280;17581;43.222;27.924;2023-07-31T06:10:59;100174.19;;;24.78;76.66
30875;BME280;17581;43.222;27.924;2023-07-31T06:13:25;100169.97;;;24.82;76.21
30875;BME280;17581;43.222;27.924;2023-07-31T06:15:50;100178.69;;;24.98;76.42
30875;BME280;17581;43.222;27.924;2023-07-31T06:18:16;100176.53;;;25.00;74.92
30875;BME280;17581;43.222;27.924;2023-07-31T06:20:41;100155.59;;;24.99;75.05
30875;BME280;17581;43.222;27.924;2023-07-31T06:23:07;100188.06;;;25.26;74.64
30875;BME280;17581;43.222;27.924;2023-07-31T06:25:33;100165.19;;;25.26;73.94
30875;BME280;17581;43.222;27.924;2023-07-31T06:27:58;100187.44;;;25.42;73.48
30875;BME280;17581;43.222;27.924;2023-07-31T06:30:24;100178.97;;;25.44;74.54
30875;BME280;17581;43.222;27.924;2023-07-31T06:32:49;100192.09;;;25.60;73.15
30875;BME280;17581;43.222;27.924;2023-07-31T06:35:15;100174.66;;;25.48;72.60
30875;BME280;17581;43.222;27.924;2023-07-31T06:37:40;100162.06;;;25.40;71.98
30875;BME280;17581;43.222;27.924;2023-07-31T06:40:08;100196.75;;;25.60;71.70
30875;BME280;17581;43.222;27.924;2023-07-31T06:42:34;100190.44;;;25.59;73.00
30875;BME280;17581;43.222;27.924;2023-07-31T06:45:01;100186.84;;;25.59;72.17
30875;BME280;17581;43.222;27.924;2023-07-31T06:47:27;100172.13;;;25.47;70.86
30875;BME280;17581;43.222;27.924;2023-07-31T06:49:52;100200.97;;;25.62;72.91
30875;BME280;17581;43.222;27.924;2023-07-31T06:52:17;100195.81;;;25.48;72.65
30875;BME280;17581;43.222;27.924;2023-07-31T06:54:43;100197.78;;;25.47;72.73
30875;BME280;17581;43.222;27.924;2023-07-31T06:57:08;100191.16;;;25.48;73.63
30875;BME280;17581;43.222;27.924;2023-07-31T06:59:34;100197.09;;;25.52;72.89
30875;BME280;17581;43.222;27.924;2023-07-31T07:01:59;100174.84;;;25.35;72.38
30875;BME280;17581;43.222;27.924;2023-07-31T07:04:25;100200.81;;;25.57;72.75
30875;BME280;17581;43.222;27.924;2023-07-31T07:06:51;100177.66;;;25.47;71.70
30875;BME280;17581;43.222;27.924;2023-07-31T07:09:16;100151.72;;;25.36;70.45
30875;BME280;17581;43.222;27.924;2023-07-31T07:11:41;100203.16;;;25.72;69.93
30875;BME280;17581;43.222;27.924;2023-07-31T07:14:07;100198.03;;;25.75;69.37
30875;BME280;17581;43.222;27.924;2023-07-31T07:16:32;100200.00;;;25.86;68.84
30875;BME280;17581;43.222;27.924;2023-07-31T07:18:58;100193.66;;;25.97;69.65
30875;BME280;17581;43.222;27.924;2023-07-31T07:21:23;100183.00;;;26.01;68.35
30875;BME280;17581;43.222;27.924;2023-07-31T07:23:49;100181.00;;;26.08;67.26
30875;BME280;17581;43.222;27.924;2023-07-31T07:26:14;100187.88;;;26.17;66.48
30875;BME280;17581;43.222;27.924;2023-07-31T07:28:39;100179.00;;;26.15;66.97
30875;BME280;17581;43.222;27.924;2023-07-31T07:31:05;100192.56;;;26.40;66.76
30875;BME280;17581;43.222;27.924;2023-07-31T07:33:30;100172.09;;;26.36;66.80
30875;BME280;17581;43.222;27.924;2023-07-31T07:36:00;100184.56;;;26.50;66.16
30875;BME280;17581;43.222;27.924;2023-07-31T07:38:26;100181.22;;;26.48;65.39
30875;BME280;17581;43.222;27.924;2023-07-31T07:40:51;100191.28;;;26.54;64.60
30875;BME280;17581;43.222;27.924;2023-07-31T07:43:18;100173.63;;;26.55;64.15
30875;BME280;17581;43.222;27.924;2023-07-31T07:45:44;100194.41;;;26.69;64.03
30875;BME280;17581;43.222;27.924;2023-07-31T07:48:09;100187.22;;;26.80;65.66
30875;BME280;17581;43.222;27.924;2023-07-31T07:50:35;100184.34;;;26.86;64.42
30875;BME280;17581;43.222;27.924;2023-07-31T07:53:00;100180.84;;;27.02;63.35
30875;BME280;17581;43.222;27.924;2023-07-31T07:55:26;100180.09;;;27.07;62.32
30875;BME280;17581;43.222;27.924;2023-07-31T07:57:51;100145.34;;;26.83;63.11
30875;BME280;17581;43.222;27.924;2023-07-31T08:00:16;100171.47;;;26.92;61.33
30875;BME280;17581;43.222;27.924;2023-07-31T08:02:42;100175.53;;;27.01;62.02
30875;BME280;17581;43.222;27.924;2023-07-31T08:05:08;100177.47;;;27.00;61.50
30875;BME280;17581;43.222;27.924;2023-07-31T08:07:34;100192.34;;;27.11;61.49
30875;BME280;17581;43.222;27.924;2023-07-31T08:09:59;100183.66;;;27.19;60.92
30875;BME280;17581;43.222;27.924;2023-07-31T08:12:25;100201.78;;;27.27;59.13
30875;BME280;17581;43.222;27.924;2023-07-31T08:14:50;100183.88;;;27.29;58.87
30875;BME280;17581;43.222;27.924;2023-07-31T08:17:16;100200.31;;;27.36;58.77
30875;BME280;17581;43.222;27.924;2023-07-31T08:19:42;100187.59;;;27.35;57.67
30875;BME280;17581;43.222;27.924;2023-07-31T08:22:07;100184.50;;;27.43;57.70
30875;BME280;17581;43.222;27.924;2023-07-31T08:24:33;100170.19;;;27.34;56.80
30875;BME280;17581;43.222;27.924;2023-07-31T08:26:58;100177.66;;;27.62;56.85
30875;BME280;17581;43.222;27.924;2023-07-31T08:29:25;100178.06;;;27.82;56.15
30875;BME280;17581;43.222;27.924;2023-07-31T08:31:50;100188.91;;;28.00;55.98
30875;BME280;17581;43.222;27.924;2023-07-31T08:34:16;100190.06;;;28.16;57.31
30875;BME280;17581;43.222;27.924;2023-07-31T08:36:41;100188.28;;;28.27;55.42
30875;BME280;17581;43.222;27.924;2023-07-31T08:39:06;100194.69;;;28.44;54.80
30875;BME280;17581;43.222;27.924;2023-07-31T08:41:37;100109.06;;;28.04;54.67
30875;BME280;17581;43.222;27.924;2023-07-31T08:44:03;100182.00;;;28.48;54.70
30875;BME280;17581;43.222;27.924;2023-07-31T08:46:29;100187.13;;;28.56;54.47
30875;BME280;17581;43.222;27.924;2023-07-31T08:48:55;100194.16;;;28.47;55.34
30875;BME280;17581;43.222;27.924;2023-07-31T08:51:21;100198.41;;;28.38;55.48
30875;BME280;17581;43.222;27.924;2023-07-31T08:53:47;100197.44;;;28.44;55.59
30875;BME280;17581;43.222;27.924;2023-07-31T08:56:13;100188.19;;;28.38;55.21
30875;BME280;17581;43.222;27.924;2023-07-31T08:58:40;100171.28;;;28.18;54.35
30875;BME280;17581;43.222;27.924;2023-07-31T09:01:06;100183.06;;;28.14;55.13
30875;BME280;17581;43.222;27.924;2023-07-31T09:03:34;100197.41;;;28.10;55.93
30875;BME280;17581;43.222;27.924;2023-07-31T09:06:01;100211.50;;;28.09;55.69
30875;BME280;17581;43.222;27.924;2023-07-31T09:08:30;100185.94;;;27.90;55.85
30875;BME280;17581;43.222;27.924;2023-07-31T09:10:59;100210.53;;;28.03;56.13
30875;BME280;17581;43.222;27.924;2023-07-31T09:13:28;100206.94;;;28.03;55.78
30875;BME280;17581;43.222;27.924;2023-07-31T09:15:53;100211.63;;;28.02;55.83
30875;BME280;17581;43.222;27.924;2023-07-31T09:18:19;100209.47;;;28.04;55.34
30875;BME280;17581;43.222;27.924;2023-07-31T09:21:06;100203.44;;;28.07;54.94
30875;BME280;17581;43.222;27.924;2023-07-31T09:23:43;100217.03;;;28.09;55.74
30875;BME280;17581;43.222;27.924;2023-07-31T09:26:09;100215.94;;;27.98;55.64
30875;BME280;17581;43.222;27.924;2023-07-31T09:28:35;100228.81;;;28.04;55.25
30875;BME280;17581;43.222;27.924;2023-07-31T09:31:00;100218.13;;;27.96;55.96
30875;BME280;17581;43.222;27.924;2023-07-31T09:33:26;100226.94;;;27.93;56.37
30875;BME280;17581;43.222;27.924;2023-07-31T09:35:51;100214.63;;;28.01;56.21
30875;BME280;17581;43.222;27.924;2023-07-31T09:38:17;100229.69;;;28.22;55.90
30875;BME280;17581;43.222;27.924;2023-07-31T09:40:44;100226.69;;;28.40;55.55
30875;BME280;17581;43.222;27.924;2023-07-31T09:43:18;100209.53;;;28.71;55.16
30875;BME280;17581;43.222;27.924;2023-07-31T09:45:44;100215.50;;;29.01;53.53
30875;BME280;17581;43.222;27.924;2023-07-31T09:48:12;100212.59;;;29.30;51.58
30875;BME280;17581;43.222;27.924;2023-07-31T09:50:39;100187.84;;;29.45;51.79
30875;BME280;17581;43.222;27.924;2023-07-31T09:53:08;100204.44;;;29.88;50.75
30875;BME280;17581;43.222;27.924;2023-07-31T09:55:34;100208.31;;;30.14;50.62
30875;BME280;17581;43.222;27.924;2023-07-31T09:58:07;100202.63;;;30.31;49.11
30875;BME280;17581;43.222;27.924;2023-07-31T10:00:33;100201.91;;;30.40;48.75
30875;BME280;17581;43.222;27.924;2023-07-31T10:03:00;100197.81;;;30.48;47.62
30875;BME280;17581;43.222;27.924;2023-07-31T10:05:34;100186.72;;;30.48;47.77
30875;BME280;17581;43.222;27.924;2023-07-31T10:08:00;100193.56;;;30.72;47.68
30875;BME280;17581;43.222;27.924;2023-07-31T10:10:26;100178.50;;;30.63;46.14
30875;BME280;17581;43.222;27.924;2023-07-31T10:12:53;100193.22;;;30.63;45.96
30875;BME280;17581;43.222;27.924;2023-07-31T10:15:20;100140.47;;;30.32;46.60
30875;BME280;17581;43.222;27.924;2023-07-31T10:17:49;100188.22;;;30.65;46.18
30875;BME280;17581;43.222;27.924;2023-07-31T10:20:16;100190.47;;;30.68;45.65
30875;BME280;17581;43.222;27.924;2023-07-31T10:22:42;100180.78;;;30.71;45.97
30875;BME280;17581;43.222;27.924;2023-07-31T10:25:09;100189.69;;;30.73;45.56
30875;BME280;17581;43.222;27.924;2023-07-31T10:27:41;100185.75;;;30.64;46.50
30875;BME280;17581;43.222;27.924;2023-07-31T10:30:08;100205.84;;;30.81;45.97
30875;BME280;17581;43.222;27.924;2023-07-31T10:32:35;100185.25;;;30.77;46.02
30875;BME280;17581;43.222;27.924;2023-07-31T10:35:02;100191.97;;;30.81;45.72
30875;BME280;17581;43.222;27.924;2023-07-31T10:37:30;100202.25;;;30.86;45.82
30875;BME280;17581;43.222;27.924;2023-07-31T10:40:19;100168.03;;;30.75;45.51
30875;BME280;17581;43.222;27.924;2023-07-31T10:42:52;100202.28;;;30.91;45.64
30875;BME280;17581;43.222;27.924;2023-07-31T10:45:35;100169.09;;;30.64;45.15
30875;BME280;17581;43.222;27.924;2023-07-31T10:48:16;100183.00;;;30.74;45.12
30875;BME280;17581;43.222;27.924;2023-07-31T10:50:54;100192.31;;;30.95;45.54
30875;BME280;17581;43.222;27.924;2023-07-31T10:53:25;100173.13;;;30.93;44.72
30875;BME280;17581;43.222;27.924;2023-07-31T10:55:51;100190.22;;;31.07;44.60
30875;BME280;17581;43.222;27.924;2023-07-31T10:58:20;100180.06;;;30.91;44.83
30875;BME280;17581;43.222;27.924;2023-07-31T11:00:46;100189.84;;;30.98;45.66
30875;BME280;17581;43.222;27.924;2023-07-31T11:03:18;100160.88;;;30.89;44.71
30875;BME280;17581;43.222;27.924;2023-07-31T11:08:25;100194.31;;;30.99;45.33
30875;BME280;17581;43.222;27.924;2023-07-31T11:11:07;100189.00;;;30.98;45.07
30875;BME280;17581;43.222;27.924;2023-07-31T11:13:44;100176.38;;;30.75;45.87
30875;BME280;17581;43.222;27.924;2023-07-31T11:16:12;100186.41;;;30.81;45.61
30875;BME280;17581;43.222;27.924;2023-07-31T11:18:44;100179.41;;;30.73;45.41
30875;BME280;17581;43.222;27.924;2023-07-31T11:21:14;100175.06;;;30.88;46.03
30875;BME280;17581;43.222;27.924;2023-07-31T11:23:40;100165.66;;;30.94;45.34
30875;BME280;17581;43.222;27.924;2023-07-31T11:26:06;100171.00;;;31.05;45.30
30875;BME280;17581;43.222;27.924;2023-07-31T11:28:33;100172.16;;;31.14;45.11
30875;BME280;17581;43.222;27.924;2023-07-31T11:30:59;100164.31;;;31.01;44.47
30875;BME280;17581;43.222;27.924;2023-07-31T11:33:25;100145.09;;;30.95;45.12
30875;BME280;17581;43.222;27.924;2023-07-31T11:35:51;100147.63;;;30.96;45.13
30875;BME280;17581;43.222;27.924;2023-07-31T11:38:30;100164.31;;;30.96;45.27
30875;BME280;17581;43.222;27.924;2023-07-31T11:40:57;100146.97;;;30.84;45.09
30875;BME280;17581;43.222;27.924;2023-07-31T11:43:23;100120.44;;;30.56;46.01
30875;BME280;17581;43.222;27.924;2023-07-31T11:45:50;100134.59;;;30.55;46.38
30875;BME280;17581;43.222;27.924;2023-07-31T11:48:36;100148.94;;;30.42;46.71
30875;BME280;17581;43.222;27.924;2023-07-31T11:51:07;100163.53;;;30.32;47.35
30875;BME280;17581;43.222;27.924;2023-07-31T11:53:48;100143.16;;;30.21;47.83
30875;BME280;17581;43.222;27.924;2023-07-31T11:56:17;100098.84;;;29.95;47.95
30875;BME280;17581;43.222;27.924;2023-07-31T11:58:55;100161.00;;;30.31;48.22
30875;BME280;17581;43.222;27.924;2023-07-31T12:01:23;100157.66;;;30.29;47.74
30875;BME280;17581;43.222;27.924;2023-07-31T12:03:50;100167.59;;;30.19;48.42
30875;BME280;17581;43.222;27.924;2023-07-31T12:06:15;100132.97;;;29.95;48.57
30875;BME280;17581;43.222;27.924;2023-07-31T12:08:41;100147.41;;;29.97;48.93
30875;BME280;17581;43.222;27.924;2023-07-31T12:11:08;100172.44;;;30.02;49.17
30875;BME280;17581;43.222;27.924;2023-07-31T12:13:38;100172.44;;;30.02;49.31
30875;BME280;17581;43.222;27.924;2023-07-31T12:16:04;100128.25;;;29.69;49.63
30875;BME280;17581;43.222;27.924;2023-07-31T12:18:33;100162.59;;;29.90;49.75
30875;BME280;17581;43.222;27.924;2023-07-31T12:21:01;100155.56;;;29.82;50.09
30875;BME280;17581;43.222;27.924;2023-07-31T12:23:31;100120.09;;;29.57;50.46
30875;BME280;17581;43.222;27.924;2023-07-31T12:26:07;100138.41;;;29.58;50.58
30875;BME280;17581;43.222;27.924;2023-07-31T12:28:54;100155.81;;;29.54;50.78
30875;BME280;17581;43.222;27.924;2023-07-31T12:31:21;100126.69;;;29.30;51.96
30875;BME280;17581;43.222;27.924;2023-07-31T12:33:49;100131.00;;;29.21;54.72
30875;BME280;17581;43.222;27.924;2023-07-31T12:36:17;100111.31;;;28.95;54.67
30875;BME280;17581;43.222;27.924;2023-07-31T12:38:43;100118.19;;;28.93;55.68
30875;BME280;17581;43.222;27.924;2023-07-31T12:41:10;100131.25;;;28.97;56.05
30875;BME280;17581;43.222;27.924;2023-07-31T12:43:37;100138.31;;;29.05;55.91
30875;BME280;17581;43.222;27.924;2023-07-31T12:46:03;100142.91;;;28.99;54.71
30875;BME280;17581;43.222;27.924;2023-07-31T12:48:28;100140.09;;;28.94;56.01